sensor_id;sensor_type;location;lat;lon;timestamp;P1;durP1;ratioP1;P2;durP2;ratioP2
58250;SDS011;51449;51.676;5.812;2022-11-20T00:00:37;35.20;;;19.73;;
58250;SDS011;51449;51.676;5.812;2022-11-20T00:02:59;31.60;;;18.27;;
58250;SDS011;51449;51.676;5.812;2022-11-20T00:05:21;32.73;;;18.57;;
58250;SDS011;51449;51.676;5.812;2022-11-20T00:07:43;26.90;;;16.37;;
58250;SDS011;51449;51.676;5.812;2022-11-20T00:10:05;26.00;;;15.80;;
58250;SDS011;51449;51.676;5.812;2022-11-20T00:12:27;24.60;;;14.73;;
58250;SDS011;51449;51.676;5.812;2022-11-20T00:14:49;28.87;;;17.37;;
58250;SDS011;51449;51.676;5.812;2022-11-20T00:17:11;28.40;;;16.53;;
58250;SDS011;51449;51.676;5.812;2022-11-20T00:19:33;24.53;;;14.13;;
58250;SDS011;51449;51.676;5.812;2022-11-20T00:21:54;22.07;;;13.30;;
58250;SDS011;51449;51.676;5.812;2022-11-20T00:24:16;24.40;;;13.33;;
58250;SDS011;51449;51.676;5.812;2022-11-20T00:26:38;20.93;;;13.10;;
58250;SDS011;51449;51.676;5.812;2022-11-20T00:29:00;24.03;;;13.27;;
58250;SDS011;51449;51.676;5.812;2022-11-20T00:31:23;23.10;;;13.00;;
58250;SDS011;51449;51.676;5.812;2022-11-20T00:33:46;22.63;;;13.07;;
58250;SDS011;51449;51.676;5.812;2022-11-20T00:36:12;23.33;;;12.10;;
58250;SDS011;51449;51.676;5.812;2022-11-20T00:38:43;21.60;;;12.40;;
58250;SDS011;51449;51.676;5.812;2022-11-20T00:41:07;22.83;;;13.77;;
58250;SDS011;51449;51.676;5.812;2022-11-20T00:43:32;24.03;;;13.97;;
58250;SDS011;51449;51.676;5.812;2022-11-20T00:45:58;22.70;;;13.00;;
58250;SDS011;51449;51.676;5.812;2022-11-20T00:48:25;24.83;;;15.20;;
58250;SDS011;51449;51.676;5.812;2022-11-20T00:50:49;27.40;;;15.17;;
58250;SDS011;51449;51.676;5.812;2022-11-20T00:53:10;24.63;;;13.90;;
58250;SDS011;51449;51.676;5.812;2022-11-20T00:55:32;23.73;;;15.10;;
58250;SDS011;51449;51.676;5.812;2022-11-20T00:57:54;23.20;;;14.03;;
58250;SDS011;51449;51.676;5.812;2022-11-20T01:00:16;26.70;;;15.03;;
58250;SDS011;51449;51.676;5.812;2022-11-20T01:02:38;24.90;;;14.20;;
58250;SDS011;51449;51.676;5.812;2022-11-20T01:05:00;24.90;;;14.53;;
58250;SDS011;51449;51.676;5.812;2022-11-20T01:07:22;26.23;;;14.90;;
58250;SDS011;51449;51.676;5.812;2022-11-20T01:09:44;22.63;;;14.23;;
58250;SDS011;51449;51.676;5.812;2022-11-20T01:12:06;24.43;;;15.37;;
58250;SDS011;51449;51.676;5.812;2022-11-20T01:14:28;24.57;;;14.87;;
58250;SDS011;51449;51.676;5.812;2022-11-20T01:16:50;21.07;;;12.33;;
58250;SDS011;51449;51.676;5.812;2022-11-20T01:19:17;25.87;;;13.93;;
58250;SDS011;51449;51.676;5.812;2022-11-20T01:21:43;23.43;;;13.87;;
58250;SDS011;51449;51.676;5.812;2022-11-20T01:24:07;24.20;;;14.63;;
58250;SDS011;51449;51.676;5.812;2022-11-20T01:26:34;24.00;;;13.30;;
58250;SDS011;51449;51.676;5.812;2022-11-20T01:28:59;25.03;;;13.37;;
58250;SDS011;51449;51.676;5.812;2022-11-20T01:31:40;22.57;;;13.23;;
58250;SDS011;51449;51.676;5.812;2022-11-20T01:34:04;21.03;;;13.17;;
58250;SDS011;51449;51.676;5.812;2022-11-20T01:36:29;21.40;;;12.70;;
58250;SDS011;51449;51.676;5.812;2022-11-20T01:38:56;24.75;;;13.82;;
58250;SDS011;51449;51.676;5.812;2022-11-20T01:41:22;23.70;;;13.13;;
58250;SDS011;51449;51.676;5.812;2022-11-20T01:44:04;22.20;;;13.20;;
58250;SDS011;51449;51.676;5.812;2022-11-20T01:46:27;22.97;;;12.83;;
58250;SDS011;51449;51.676;5.812;2022-11-20T01:54:17;21.77;;;12.50;;
58250;SDS011;51449;51.676;5.812;2022-11-20T01:56:46;21.17;;;13.40;;
58250;SDS011;51449;51.676;5.812;2022-11-20T01:59:15;22.90;;;13.20;;
58250;SDS011;51449;51.676;5.812;2022-11-20T02:01:41;22.93;;;13.40;;
58250;SDS011;51449;51.676;5.812;2022-11-20T02:04:03;21.03;;;12.90;;
58250;SDS011;51449;51.676;5.812;2022-11-20T02:06:27;21.67;;;13.17;;
58250;SDS011;51449;51.676;5.812;2022-11-20T02:09:16;21.80;;;12.30;;
58250;SDS011;51449;51.676;5.812;2022-11-20T02:11:39;21.67;;;12.13;;
58250;SDS011;51449;51.676;5.812;2022-11-20T02:14:01;23.37;;;12.87;;
58250;SDS011;51449;51.676;5.812;2022-11-20T02:16:27;20.70;;;12.53;;
58250;SDS011;51449;51.676;5.812;2022-11-20T02:18:55;25.37;;;12.93;;
58250;SDS011;51449;51.676;5.812;2022-11-20T02:21:23;21.53;;;12.13;;
58250;SDS011;51449;51.676;5.812;2022-11-20T02:26:38;22.00;;;12.20;;
58250;SDS011;51449;51.676;5.812;2022-11-20T02:29:19;22.90;;;12.40;;
58250;SDS011;51449;51.676;5.812;2022-11-20T02:31:48;22.97;;;12.27;;
58250;SDS011;51449;51.676;5.812;2022-11-20T02:34:10;23.43;;;12.63;;
58250;SDS011;51449;51.676;5.812;2022-11-20T02:36:32;21.10;;;12.43;;
58250;SDS011;51449;51.676;5.812;2022-11-20T02:38:57;21.00;;;12.00;;
58250;SDS011;51449;51.676;5.812;2022-11-20T02:41:19;23.50;;;12.40;;
58250;SDS011;51449;51.676;5.812;2022-11-20T02:43:41;21.20;;;11.93;;
58250;SDS011;51449;51.676;5.812;2022-11-20T02:46:02;22.47;;;12.20;;
58250;SDS011;51449;51.676;5.812;2022-11-20T02:48:24;24.33;;;13.87;;
58250;SDS011;51449;51.676;5.812;2022-11-20T02:50:49;22.40;;;12.43;;
58250;SDS011;51449;51.676;5.812;2022-11-20T02:53:11;22.27;;;12.80;;
58250;SDS011;51449;51.676;5.812;2022-11-20T02:55:33;20.97;;;12.33;;
58250;SDS011;51449;51.676;5.812;2022-11-20T02:57:55;23.93;;;12.37;;
58250;SDS011;51449;51.676;5.812;2022-11-20T03:00:17;21.73;;;12.13;;
58250;SDS011;51449;51.676;5.812;2022-11-20T03:02:39;21.47;;;12.00;;
58250;SDS011;51449;51.676;5.812;2022-11-20T03:05:01;23.37;;;13.03;;
58250;SDS011;51449;51.676;5.812;2022-11-20T03:07:24;23.57;;;12.10;;
58250;SDS011;51449;51.676;5.812;2022-11-20T03:09:46;21.43;;;11.93;;
58250;SDS011;51449;51.676;5.812;2022-11-20T03:12:08;23.37;;;12.23;;
58250;SDS011;51449;51.676;5.812;2022-11-20T03:14:30;22.53;;;12.80;;
58250;SDS011;51449;51.676;5.812;2022-11-20T03:16:51;20.97;;;12.37;;
58250;SDS011;51449;51.676;5.812;2022-11-20T03:19:13;26.03;;;14.00;;
58250;SDS011;51449;51.676;5.812;2022-11-20T03:21:35;21.37;;;11.30;;
58250;SDS011;51449;51.676;5.812;2022-11-20T03:23:57;24.03;;;13.03;;
58250;SDS011;51449;51.676;5.812;2022-11-20T03:26:20;23.00;;;12.87;;
58250;SDS011;51449;51.676;5.812;2022-11-20T03:28:57;23.13;;;13.07;;
58250;SDS011;51449;51.676;5.812;2022-11-20T03:31:25;23.90;;;13.53;;
58250;SDS011;51449;51.676;5.812;2022-11-20T03:33:56;21.77;;;12.95;;
58250;SDS011;51449;51.676;5.812;2022-11-20T03:36:20;24.08;;;13.52;;
58250;SDS011;51449;51.676;5.812;2022-11-20T03:38:42;23.47;;;13.20;;
58250;SDS011;51449;51.676;5.812;2022-11-20T03:41:06;23.63;;;12.83;;
58250;SDS011;51449;51.676;5.812;2022-11-20T03:43:34;22.93;;;13.13;;
58250;SDS011;51449;51.676;5.812;2022-11-20T03:45:57;21.33;;;12.57;;
58250;SDS011;51449;51.676;5.812;2022-11-20T03:48:19;23.70;;;13.33;;
58250;SDS011;51449;51.676;5.812;2022-11-20T03:50:41;22.23;;;12.27;;
58250;SDS011;51449;51.676;5.812;2022-11-20T03:53:03;21.33;;;11.70;;
58250;SDS011;51449;51.676;5.812;2022-11-20T03:55:25;20.37;;;12.50;;
58250;SDS011;51449;51.676;5.812;2022-11-20T03:57:46;21.17;;;12.33;;
58250;SDS011;51449;51.676;5.812;2022-11-20T04:00:09;21.80;;;12.10;;
58250;SDS011;51449;51.676;5.812;2022-11-20T04:02:31;23.23;;;13.10;;
58250;SDS011;51449;51.676;5.812;2022-11-20T04:04:53;19.93;;;12.30;;
58250;SDS011;51449;51.676;5.812;2022-11-20T04:07:15;23.03;;;14.17;;
58250;SDS011;51449;51.676;5.812;2022-11-20T04:09:37;25.53;;;13.33;;
58250;SDS011;51449;51.676;5.812;2022-11-20T04:11:59;23.33;;;13.43;;
58250;SDS011;51449;51.676;5.812;2022-11-20T04:14:21;23.50;;;13.37;;
58250;SDS011;51449;51.676;5.812;2022-11-20T04:16:43;22.93;;;12.77;;
58250;SDS011;51449;51.676;5.812;2022-11-20T04:19:09;24.63;;;14.03;;
58250;SDS011;51449;51.676;5.812;2022-11-20T04:21:36;25.57;;;13.67;;
58250;SDS011;51449;51.676;5.812;2022-11-20T04:23:59;22.13;;;12.20;;
58250;SDS011;51449;51.676;5.812;2022-11-20T04:26:22;24.10;;;12.83;;
58250;SDS011;51449;51.676;5.812;2022-11-20T04:28:47;20.20;;;12.33;;
58250;SDS011;51449;51.676;5.812;2022-11-20T04:31:16;22.90;;;12.27;;
58250;SDS011;51449;51.676;5.812;2022-11-20T04:33:42;22.93;;;12.67;;
58250;SDS011;51449;51.676;5.812;2022-11-20T04:36:12;22.40;;;12.67;;
58250;SDS011;51449;51.676;5.812;2022-11-20T04:38:39;23.27;;;12.60;;
58250;SDS011;51449;51.676;5.812;2022-11-20T04:41:03;24.65;;;12.65;;
58250;SDS011;51449;51.676;5.812;2022-11-20T04:43:28;23.43;;;12.60;;
58250;SDS011;51449;51.676;5.812;2022-11-20T04:45:52;25.20;;;13.43;;
58250;SDS011;51449;51.676;5.812;2022-11-20T04:48:16;22.13;;;12.63;;
58250;SDS011;51449;51.676;5.812;2022-11-20T04:50:39;21.17;;;11.23;;
58250;SDS011;51449;51.676;5.812;2022-11-20T04:53:02;23.27;;;12.85;;
58250;SDS011;51449;51.676;5.812;2022-11-20T04:55:24;24.33;;;12.50;;
58250;SDS011;51449;51.676;5.812;2022-11-20T04:57:49;23.97;;;12.30;;
58250;SDS011;51449;51.676;5.812;2022-11-20T05:00:13;23.50;;;11.97;;
58250;SDS011;51449;51.676;5.812;2022-11-20T05:02:37;22.30;;;12.32;;
58250;SDS011;51449;51.676;5.812;2022-11-20T05:04:59;20.60;;;12.47;;
58250;SDS011;51449;51.676;5.812;2022-11-20T05:07:25;18.23;;;11.63;;
58250;SDS011;51449;51.676;5.812;2022-11-20T05:09:47;22.87;;;12.07;;
58250;SDS011;51449;51.676;5.812;2022-11-20T05:12:10;23.43;;;12.60;;
58250;SDS011;51449;51.676;5.812;2022-11-20T05:14:33;22.53;;;13.10;;
58250;SDS011;51449;51.676;5.812;2022-11-20T05:16:59;22.53;;;12.63;;
58250;SDS011;51449;51.676;5.812;2022-11-20T05:19:23;23.58;;;13.02;;
58250;SDS011;51449;51.676;5.812;2022-11-20T05:21:53;22.93;;;11.70;;
58250;SDS011;51449;51.676;5.812;2022-11-20T05:24:28;23.20;;;12.47;;
58250;SDS011;51449;51.676;5.812;2022-11-20T05:27:02;20.23;;;12.43;;
58250;SDS011;51449;51.676;5.812;2022-11-20T05:29:50;23.13;;;12.47;;
58250;SDS011;51449;51.676;5.812;2022-11-20T05:32:20;22.10;;;12.40;;
58250;SDS011;51449;51.676;5.812;2022-11-20T05:39:06;22.47;;;12.07;;
58250;SDS011;51449;51.676;5.812;2022-11-20T05:41:39;22.40;;;11.73;;
58250;SDS011;51449;51.676;5.812;2022-11-20T05:44:20;21.77;;;11.83;;
58250;SDS011;51449;51.676;5.812;2022-11-20T05:52:18;23.73;;;12.70;;
58250;SDS011;51449;51.676;5.812;2022-11-20T05:54:42;22.37;;;12.20;;
58250;SDS011;51449;51.676;5.812;2022-11-20T05:57:07;23.30;;;12.43;;
58250;SDS011;51449;51.676;5.812;2022-11-20T05:59:30;23.67;;;12.60;;
58250;SDS011;51449;51.676;5.812;2022-11-20T06:01:53;24.00;;;12.07;;
58250;SDS011;51449;51.676;5.812;2022-11-20T06:04:18;21.73;;;12.60;;
58250;SDS011;51449;51.676;5.812;2022-11-20T06:06:44;26.17;;;13.47;;
58250;SDS011;51449;51.676;5.812;2022-11-20T06:09:08;24.57;;;12.83;;
58250;SDS011;51449;51.676;5.812;2022-11-20T06:11:33;24.70;;;13.03;;
58250;SDS011;51449;51.676;5.812;2022-11-20T06:16:22;22.85;;;12.52;;
58250;SDS011;51449;51.676;5.812;2022-11-20T06:18:46;25.02;;;12.68;;
58250;SDS011;51449;51.676;5.812;2022-11-20T06:24:20;26.83;;;13.53;;
58250;SDS011;51449;51.676;5.812;2022-11-20T06:26:43;24.07;;;13.17;;
58250;SDS011;51449;51.676;5.812;2022-11-20T06:29:07;23.93;;;13.07;;
58250;SDS011;51449;51.676;5.812;2022-11-20T06:31:31;22.85;;;12.73;;
58250;SDS011;51449;51.676;5.812;2022-11-20T06:33:59;23.17;;;13.00;;
58250;SDS011;51449;51.676;5.812;2022-11-20T06:36:25;26.80;;;13.37;;
58250;SDS011;51449;51.676;5.812;2022-11-20T06:41:13;22.30;;;12.93;;
58250;SDS011;51449;51.676;5.812;2022-11-20T06:43:40;23.17;;;12.67;;
58250;SDS011;51449;51.676;5.812;2022-11-20T06:46:10;24.87;;;13.07;;
58250;SDS011;51449;51.676;5.812;2022-11-20T06:52:16;23.40;;;13.50;;
58250;SDS011;51449;51.676;5.812;2022-11-20T06:58:44;29.55;;;14.65;;
58250;SDS011;51449;51.676;5.812;2022-11-20T07:01:12;24.80;;;13.68;;
58250;SDS011;51449;51.676;5.812;2022-11-20T07:09:16;26.67;;;13.47;;
58250;SDS011;51449;51.676;5.812;2022-11-20T07:11:39;24.63;;;13.55;;
58250;SDS011;51449;51.676;5.812;2022-11-20T07:14:04;21.63;;;12.77;;
58250;SDS011;51449;51.676;5.812;2022-11-20T07:16:29;24.00;;;13.87;;
58250;SDS011;51449;51.676;5.812;2022-11-20T07:19:01;25.43;;;13.43;;
58250;SDS011;51449;51.676;5.812;2022-11-20T07:21:28;23.27;;;12.77;;
58250;SDS011;51449;51.676;5.812;2022-11-20T07:23:59;25.20;;;13.17;;
58250;SDS011;51449;51.676;5.812;2022-11-20T07:26:26;22.50;;;12.60;;
58250;SDS011;51449;51.676;5.812;2022-11-20T07:28:50;24.17;;;12.80;;
58250;SDS011;51449;51.676;5.812;2022-11-20T07:31:15;23.90;;;13.00;;
58250;SDS011;51449;51.676;5.812;2022-11-20T07:33:40;25.53;;;12.97;;
58250;SDS011;51449;51.676;5.812;2022-11-20T08:32:08;26.90;;;15.25;;
58250;SDS011;51449;51.676;5.812;2022-11-20T08:41:24;31.58;;;17.83;;
58250;SDS011;51449;51.676;5.812;2022-11-20T08:44:09;31.40;;;18.80;;
58250;SDS011;51449;51.676;5.812;2022-11-20T08:46:36;33.10;;;19.03;;
58250;SDS011;51449;51.676;5.812;2022-11-20T08:49:03;29.90;;;16.57;;
58250;SDS011;51449;51.676;5.812;2022-11-20T08:51:29;33.90;;;17.73;;
58250;SDS011;51449;51.676;5.812;2022-11-20T08:53:52;31.93;;;17.43;;
58250;SDS011;51449;51.676;5.812;2022-11-20T08:56:15;32.27;;;17.13;;
58250;SDS011;51449;51.676;5.812;2022-11-20T08:58:39;28.67;;;17.05;;
58250;SDS011;51449;51.676;5.812;2022-11-20T09:01:22;34.40;;;17.43;;
58250;SDS011;51449;51.676;5.812;2022-11-20T09:03:45;29.77;;;17.60;;
58250;SDS011;51449;51.676;5.812;2022-11-20T09:06:08;32.77;;;16.87;;
58250;SDS011;51449;51.676;5.812;2022-11-20T09:08:33;31.63;;;17.77;;
58250;SDS011;51449;51.676;5.812;2022-11-20T09:13:21;32.93;;;18.50;;
58250;SDS011;51449;51.676;5.812;2022-11-20T09:15:45;30.87;;;18.00;;
58250;SDS011;51449;51.676;5.812;2022-11-20T09:18:07;29.83;;;17.53;;
58250;SDS011;51449;51.676;5.812;2022-11-20T09:20:30;31.60;;;17.87;;
58250;SDS011;51449;51.676;5.812;2022-11-20T09:22:53;32.13;;;18.50;;
58250;SDS011;51449;51.676;5.812;2022-11-20T09:25:14;30.70;;;17.80;;
58250;SDS011;51449;51.676;5.812;2022-11-20T09:27:37;30.33;;;18.47;;
58250;SDS011;51449;51.676;5.812;2022-11-20T09:29:59;31.87;;;18.70;;
58250;SDS011;51449;51.676;5.812;2022-11-20T09:32:21;34.70;;;19.40;;
58250;SDS011;51449;51.676;5.812;2022-11-20T09:34:42;32.93;;;17.93;;
58250;SDS011;51449;51.676;5.812;2022-11-20T09:37:04;32.13;;;19.50;;
58250;SDS011;51449;51.676;5.812;2022-11-20T09:39:28;39.63;;;20.75;;
58250;SDS011;51449;51.676;5.812;2022-11-20T09:42:03;34.70;;;20.13;;
58250;SDS011;51449;51.676;5.812;2022-11-20T09:45:05;33.23;;;20.03;;
58250;SDS011;51449;51.676;5.812;2022-11-20T09:47:54;35.77;;;19.80;;
58250;SDS011;51449;51.676;5.812;2022-11-20T09:50:37;35.70;;;20.67;;
58250;SDS011;51449;51.676;5.812;2022-11-20T09:55:56;32.13;;;20.50;;
58250;SDS011;51449;51.676;5.812;2022-11-20T09:58:29;36.73;;;21.07;;
58250;SDS011;51449;51.676;5.812;2022-11-20T10:01:08;35.43;;;21.30;;
58250;SDS011;51449;51.676;5.812;2022-11-20T10:06:32;33.40;;;21.17;;
58250;SDS011;51449;51.676;5.812;2022-11-20T10:14:28;31.27;;;19.00;;
58250;SDS011;51449;51.676;5.812;2022-11-20T10:17:49;35.03;;;19.40;;
58250;SDS011;51449;51.676;5.812;2022-11-20T10:19:58;33.40;;;19.50;;
58250;SDS011;51449;51.676;5.812;2022-11-20T10:22:55;33.47;;;18.43;;
58250;SDS011;51449;51.676;5.812;2022-11-20T10:25:22;36.80;;;19.77;;
58250;SDS011;51449;51.676;5.812;2022-11-20T10:31:02;32.43;;;18.47;;
58250;SDS011;51449;51.676;5.812;2022-11-20T10:33:36;31.87;;;20.17;;
58250;SDS011;51449;51.676;5.812;2022-11-20T10:36:33;32.63;;;18.90;;
58250;SDS011;51449;51.676;5.812;2022-11-20T10:39:16;30.20;;;18.67;;
58250;SDS011;51449;51.676;5.812;2022-11-20T10:41:56;31.42;;;19.35;;
58250;SDS011;51449;51.676;5.812;2022-11-20T10:44:24;30.90;;;19.80;;
58250;SDS011;51449;51.676;5.812;2022-11-20T10:47:16;32.03;;;19.93;;
58250;SDS011;51449;51.676;5.812;2022-11-20T11:00:04;38.87;;;21.60;;
58250;SDS011;51449;51.676;5.812;2022-11-20T11:02:34;38.40;;;21.63;;
58250;SDS011;51449;51.676;5.812;2022-11-20T11:05:32;35.87;;;20.53;;
58250;SDS011;51449;51.676;5.812;2022-11-20T11:07:59;33.73;;;20.30;;
58250;SDS011;51449;51.676;5.812;2022-11-20T11:10:22;37.83;;;21.27;;
58250;SDS011;51449;51.676;5.812;2022-11-20T11:29:22;41.35;;;22.38;;
58250;SDS011;51449;51.676;5.812;2022-11-20T11:31:45;43.33;;;23.15;;
58250;SDS011;51449;51.676;5.812;2022-11-20T11:34:17;41.97;;;22.87;;
58250;SDS011;51449;51.676;5.812;2022-11-20T11:36:39;46.73;;;23.00;;
58250;SDS011;51449;51.676;5.812;2022-11-20T11:39:02;42.37;;;23.73;;
58250;SDS011;51449;51.676;5.812;2022-11-20T11:41:30;40.50;;;23.00;;
58250;SDS011;51449;51.676;5.812;2022-11-20T11:44:00;41.97;;;21.47;;
58250;SDS011;51449;51.676;5.812;2022-11-20T11:46:59;46.77;;;23.57;;
58250;SDS011;51449;51.676;5.812;2022-11-20T11:49:22;43.17;;;23.63;;
58250;SDS011;51449;51.676;5.812;2022-11-20T11:54:24;49.37;;;24.10;;
58250;SDS011;51449;51.676;5.812;2022-11-20T11:56:55;44.60;;;23.83;;
58250;SDS011;51449;51.676;5.812;2022-11-20T12:02:36;44.97;;;23.03;;
58250;SDS011;51449;51.676;5.812;2022-11-20T12:07:57;46.77;;;22.90;;
58250;SDS011;51449;51.676;5.812;2022-11-20T12:13:30;42.83;;;23.80;;
58250;SDS011;51449;51.676;5.812;2022-11-20T12:16:27;46.63;;;24.43;;
58250;SDS011;51449;51.676;5.812;2022-11-20T12:19:40;45.50;;;22.73;;
58250;SDS011;51449;51.676;5.812;2022-11-20T12:22:32;46.47;;;24.97;;
58250;SDS011;51449;51.676;5.812;2022-11-20T12:25:51;48.83;;;24.33;;
58250;SDS011;51449;51.676;5.812;2022-11-20T12:36:22;48.63;;;23.90;;
58250;SDS011;51449;51.676;5.812;2022-11-20T12:42:18;47.10;;;23.87;;
58250;SDS011;51449;51.676;5.812;2022-11-20T12:45:24;47.43;;;23.77;;
58250;SDS011;51449;51.676;5.812;2022-11-20T12:48:38;48.93;;;23.33;;
58250;SDS011;51449;51.676;5.812;2022-11-20T12:54:50;54.83;;;24.60;;
58250;SDS011;51449;51.676;5.812;2022-11-20T13:00:20;53.80;;;25.50;;
58250;SDS011;51449;51.676;5.812;2022-11-20T13:08:57;65.37;;;26.60;;
58250;SDS011;51449;51.676;5.812;2022-11-20T13:15:15;60.70;;;25.37;;
58250;SDS011;51449;51.676;5.812;2022-11-20T13:17:55;66.70;;;26.87;;
58250;SDS011;51449;51.676;5.812;2022-11-20T13:23:27;66.17;;;26.30;;
58250;SDS011;51449;51.676;5.812;2022-11-20T13:26:16;61.50;;;24.70;;
58250;SDS011;51449;51.676;5.812;2022-11-20T13:28:41;56.13;;;24.97;;
58250;SDS011;51449;51.676;5.812;2022-11-20T13:31:10;58.80;;;25.00;;
58250;SDS011;51449;51.676;5.812;2022-11-20T13:33:55;60.63;;;25.23;;
58250;SDS011;51449;51.676;5.812;2022-11-20T13:36:32;56.40;;;26.23;;
58250;SDS011;51449;51.676;5.812;2022-11-20T13:39:24;62.43;;;24.40;;
58250;SDS011;51449;51.676;5.812;2022-11-20T13:41:57;57.87;;;24.23;;
58250;SDS011;51449;51.676;5.812;2022-11-20T13:44:54;64.63;;;24.93;;
58250;SDS011;51449;51.676;5.812;2022-11-20T13:47:24;56.30;;;23.90;;
58250;SDS011;51449;51.676;5.812;2022-11-20T13:49:52;61.77;;;25.70;;
58250;SDS011;51449;51.676;5.812;2022-11-20T14:00:46;67.13;;;25.37;;
58250;SDS011;51449;51.676;5.812;2022-11-20T14:03:23;68.27;;;25.30;;
58250;SDS011;51449;51.676;5.812;2022-11-20T14:06:29;67.90;;;26.43;;
58250;SDS011;51449;51.676;5.812;2022-11-20T14:08:56;71.37;;;25.77;;
58250;SDS011;51449;51.676;5.812;2022-11-20T14:11:20;68.93;;;25.77;;
58250;SDS011;51449;51.676;5.812;2022-11-20T14:16:27;71.60;;;26.77;;
58250;SDS011;51449;51.676;5.812;2022-11-20T14:18:52;71.60;;;27.07;;
58250;SDS011;51449;51.676;5.812;2022-11-20T14:21:28;75.38;;;25.88;;
58250;SDS011;51449;51.676;5.812;2022-11-20T14:26:26;60.37;;;23.90;;
58250;SDS011;51449;51.676;5.812;2022-11-20T14:28:49;64.20;;;24.87;;
58250;SDS011;51449;51.676;5.812;2022-11-20T14:31:24;67.80;;;24.73;;
58250;SDS011;51449;51.676;5.812;2022-11-20T14:33:49;64.93;;;25.30;;
58250;SDS011;51449;51.676;5.812;2022-11-20T14:36:17;65.93;;;25.17;;
58250;SDS011;51449;51.676;5.812;2022-11-20T14:38:46;63.03;;;25.17;;
58250;SDS011;51449;51.676;5.812;2022-11-20T14:41:09;63.27;;;24.53;;
58250;SDS011;51449;51.676;5.812;2022-11-20T14:43:44;63.90;;;24.37;;
58250;SDS011;51449;51.676;5.812;2022-11-20T14:46:09;63.03;;;25.47;;
58250;SDS011;51449;51.676;5.812;2022-11-20T14:48:38;59.53;;;24.37;;
58250;SDS011;51449;51.676;5.812;2022-11-20T14:51:08;67.50;;;25.10;;
58250;SDS011;51449;51.676;5.812;2022-11-20T14:54:17;63.80;;;24.60;;
58250;SDS011;51449;51.676;5.812;2022-11-20T14:57:00;72.50;;;32.20;;
58250;SDS011;51449;51.676;5.812;2022-11-20T14:59:27;64.90;;;24.90;;
58250;SDS011;51449;51.676;5.812;2022-11-20T15:04:47;64.97;;;25.30;;
58250;SDS011;51449;51.676;5.812;2022-11-20T15:07:22;66.72;;;26.63;;
58250;SDS011;51449;51.676;5.812;2022-11-20T15:10:04;56.08;;;24.27;;
58250;SDS011;51449;51.676;5.812;2022-11-20T15:12:31;56.35;;;25.92;;
58250;SDS011;51449;51.676;5.812;2022-11-20T15:14:57;62.23;;;25.10;;
58250;SDS011;51449;51.676;5.812;2022-11-20T15:17:20;58.63;;;24.57;;
58250;SDS011;51449;51.676;5.812;2022-11-20T15:19:42;65.83;;;24.33;;
58250;SDS011;51449;51.676;5.812;2022-11-20T15:22:04;61.10;;;25.00;;
58250;SDS011;51449;51.676;5.812;2022-11-20T15:24:37;53.73;;;23.23;;
58250;SDS011;51449;51.676;5.812;2022-11-20T15:26:59;56.17;;;22.13;;
58250;SDS011;51449;51.676;5.812;2022-11-20T15:29:21;51.00;;;21.80;;
58250;SDS011;51449;51.676;5.812;2022-11-20T15:31:45;56.92;;;24.50;;
58250;SDS011;51449;51.676;5.812;2022-11-20T15:34:10;53.20;;;22.67;;
58250;SDS011;51449;51.676;5.812;2022-11-20T15:36:34;49.10;;;22.63;;
58250;SDS011;51449;51.676;5.812;2022-11-20T15:38:55;55.33;;;23.50;;
58250;SDS011;51449;51.676;5.812;2022-11-20T15:41:17;53.40;;;22.93;;
58250;SDS011;51449;51.676;5.812;2022-11-20T15:43:39;51.47;;;22.10;;
58250;SDS011;51449;51.676;5.812;2022-11-20T15:46:05;53.13;;;22.73;;
58250;SDS011;51449;51.676;5.812;2022-11-20T15:48:36;52.60;;;23.23;;
58250;SDS011;51449;51.676;5.812;2022-11-20T15:53:50;46.07;;;20.33;;
58250;SDS011;51449;51.676;5.812;2022-11-20T15:56:12;47.97;;;21.83;;
58250;SDS011;51449;51.676;5.812;2022-11-20T15:58:35;47.88;;;21.33;;
58250;SDS011;51449;51.676;5.812;2022-11-20T16:00:57;52.20;;;21.33;;
58250;SDS011;51449;51.676;5.812;2022-11-20T16:03:19;52.10;;;22.57;;
58250;SDS011;51449;51.676;5.812;2022-11-20T16:05:41;51.57;;;23.20;;
58250;SDS011;51449;51.676;5.812;2022-11-20T16:08:04;49.47;;;23.07;;
58250;SDS011;51449;51.676;5.812;2022-11-20T16:10:32;51.60;;;22.53;;
58250;SDS011;51449;51.676;5.812;2022-11-20T16:12:54;52.93;;;23.07;;
58250;SDS011;51449;51.676;5.812;2022-11-20T16:15:34;52.07;;;23.70;;
58250;SDS011;51449;51.676;5.812;2022-11-20T16:18:09;52.78;;;24.52;;
58250;SDS011;51449;51.676;5.812;2022-11-20T16:20:33;55.70;;;29.97;;
58250;SDS011;51449;51.676;5.812;2022-11-20T16:22:55;57.00;;;34.93;;
58250;SDS011;51449;51.676;5.812;2022-11-20T16:25:17;46.83;;;24.37;;
58250;SDS011;51449;51.676;5.812;2022-11-20T16:27:39;50.40;;;25.83;;
58250;SDS011;51449;51.676;5.812;2022-11-20T16:30:01;50.17;;;22.90;;
58250;SDS011;51449;51.676;5.812;2022-11-20T16:32:23;48.70;;;24.27;;
58250;SDS011;51449;51.676;5.812;2022-11-20T16:34:45;52.67;;;23.73;;
58250;SDS011;51449;51.676;5.812;2022-11-20T16:37:06;52.10;;;23.47;;
58250;SDS011;51449;51.676;5.812;2022-11-20T16:39:28;48.17;;;21.47;;
58250;SDS011;51449;51.676;5.812;2022-11-20T16:41:50;47.43;;;22.93;;
58250;SDS011;51449;51.676;5.812;2022-11-20T16:44:13;50.17;;;23.07;;
58250;SDS011;51449;51.676;5.812;2022-11-20T16:46:35;49.90;;;23.40;;
58250;SDS011;51449;51.676;5.812;2022-11-20T16:51:20;44.57;;;21.47;;
58250;SDS011;51449;51.676;5.812;2022-11-20T16:53:44;45.33;;;21.20;;
58250;SDS011;51449;51.676;5.812;2022-11-20T16:56:15;45.10;;;20.90;;
58250;SDS011;51449;51.676;5.812;2022-11-20T16:58:40;48.08;;;22.25;;
58250;SDS011;51449;51.676;5.812;2022-11-20T17:01:09;43.73;;;21.40;;
58250;SDS011;51449;51.676;5.812;2022-11-20T17:03:36;50.13;;;23.03;;
58250;SDS011;51449;51.676;5.812;2022-11-20T17:05:59;46.35;;;22.77;;
58250;SDS011;51449;51.676;5.812;2022-11-20T17:08:21;47.10;;;23.00;;
58250;SDS011;51449;51.676;5.812;2022-11-20T17:10:43;44.70;;;20.80;;
58250;SDS011;51449;51.676;5.812;2022-11-20T17:13:07;47.47;;;20.08;;
58250;SDS011;51449;51.676;5.812;2022-11-20T17:15:30;43.80;;;21.67;;
58250;SDS011;51449;51.676;5.812;2022-11-20T17:17:52;45.40;;;21.37;;
58250;SDS011;51449;51.676;5.812;2022-11-20T17:20:13;46.20;;;19.97;;
58250;SDS011;51449;51.676;5.812;2022-11-20T17:22:35;46.87;;;21.87;;
58250;SDS011;51449;51.676;5.812;2022-11-20T17:24:57;42.73;;;20.27;;
58250;SDS011;51449;51.676;5.812;2022-11-20T17:36:09;39.90;;;20.30;;
58250;SDS011;51449;51.676;5.812;2022-11-20T17:38:34;42.13;;;19.77;;
58250;SDS011;51449;51.676;5.812;2022-11-20T18:02:08;38.85;;;19.90;;
58250;SDS011;51449;51.676;5.812;2022-11-20T18:04:31;38.17;;;19.45;;
58250;SDS011;51449;51.676;5.812;2022-11-20T18:06:53;35.90;;;18.97;;
58250;SDS011;51449;51.676;5.812;2022-11-20T18:09:15;37.60;;;19.20;;
58250;SDS011;51449;51.676;5.812;2022-11-20T18:11:38;36.30;;;18.13;;
58250;SDS011;51449;51.676;5.812;2022-11-20T18:14:04;37.93;;;18.53;;
58250;SDS011;51449;51.676;5.812;2022-11-20T18:16:54;39.53;;;18.60;;
58250;SDS011;51449;51.676;5.812;2022-11-20T18:37:06;52.83;;;23.77;;
58250;SDS011;51449;51.676;5.812;2022-11-20T18:39:30;49.65;;;24.73;;
58250;SDS011;51449;51.676;5.812;2022-11-20T18:41:52;46.07;;;23.20;;